Seastreak Highlands — WDE4031 — position and weather

sailwx.info

Track history (hours):
 
Tides and Currents Weather Stations Pressure Air Temp Water Temp Dewpoint Dewpoint Depression Visibility Wind Speed Wind Dir Waves Ship Positions

Seastreak Highlands

Owner: Seastreak llc, atlantic highlands, NJ. More information available from US FCC via Universal Licensing System and Coast Guard Vessel Documentation Center.

Last reported at 2016-Jul-28 17:14 UTC. Time now 2016-Jul-28 18:23 UTC.
Position N 40°45' W 073°58'.

Length 44 m.

Type: High speed craft. MMSI: 367347670.

Date/timePositionNaut miles runAvg speedWind from/ knotsBaromVisibWave heightAir tempDewpointWater temp
2016-Jul-28 17:14N 40°45' W 073°58'0 0.0
2016-Jul-28 16:28N 40°45' W 073°58'0 0.0
2016-Jul-28 15:33N 40°45' W 073°58'0 0.0
2016-Jul-28 13:30N 40°45' W 073°58'3 3.5
2016-Jul-28 12:33N 40°43' W 074°02'1311.7
2016-Jul-28 11:26N 40°30' W 074°02'1314.9
2016-Jul-28 10:33N 40°43' W 074°02'0 0.0
2016-Jul-27 23:33N 40°43' W 074°02'0 0.0
2016-Jul-27 21:33N 40°43' W 074°02'0 0.0
2016-Jul-27 19:33N 40°43' W 074°02'3 3.3
2016-Jul-27 18:33N 40°45' W 073°58'0 0.0
2016-Jul-27 17:33N 40°45' W 073°58'0 0.0
2016-Jul-27 16:34N 40°45' W 073°58'0 0.0
2016-Jul-27 15:33N 40°45' W 073°58'0 0.0
2016-Jul-27 14:33N 40°45' W 073°58'0 0.0
2016-Jul-27 13:33N 40°45' W 073°58'3 3.3
2016-Jul-27 12:33N 40°43' W 074°02'10 7.7
2016-Jul-27 11:17N 40°33' W 074°02'1013.7
2016-Jul-27 10:34N 40°43' W 074°02'0 0.0
2016-Jul-26 23:33N 40°43' W 074°02'0 0.1
2016-Jul-26 21:34N 40°43' W 074°02'0 0.0
2016-Jul-26 19:33N 40°43' W 074°02'3 0.8
2016-Jul-26 15:34N 40°40' W 074°03'6 6.1
2016-Jul-26 14:33N 40°45' W 073°58'0 0.0
2016-Jul-26 13:34N 40°45' W 073°58'3 3.3
2016-Jul-26 12:33N 40°43' W 074°02'1716.0
2016-Jul-26 11:31N 40°26' W 074°02'1717.5
2016-Jul-26 10:33N 40°43' W 074°02'0 0.0
2016-Jul-25 23:34N 40°43' W 074°02'0 0.1
2016-Jul-25 21:33N 40°43' W 074°02'0 0.0
2016-Jul-25 19:33N 40°43' W 074°02'5 0.7
2016-Jul-25 13:08N 40°46' W 073°57'5 8.1
2016-Jul-25 12:33N 40°43' W 074°02'10 8.0
2016-Jul-25 11:16N 40°33' W 074°02'1014.4
2016-Jul-25 10:33N 40°43' W 074°02'9 0.8
2016-Jul-24 23:34N 40°34' W 074°03'4 3.5
2016-Jul-24 22:34N 40°38' W 074°03'2 1.5
2016-Jul-24 21:26N 40°36' W 074°03'7 7.9
2016-Jul-24 20:33N 40°42' W 073°59'7 1.3
2016-Jul-24 15:05N 40°36' W 074°03'915.4
2016-Jul-24 14:29N 40°45' W 073°58'8 4.2
2016-Jul-24 12:33N 40°37' W 074°03'6 6.0
2016-Jul-24 11:33N 40°42' W 073°59'9 0.7
2016-Jul-23 23:19N 40°34' W 074°03'911.5
2016-Jul-23 22:34N 40°42' W 073°60'9 8.9
2016-Jul-23 21:30N 40°33' W 074°02'9 9.8
2016-Jul-23 20:34N 40°42' W 073°60'7 1.2
2016-Jul-23 15:04N 40°36' W 074°03'918.7
2016-Jul-23 14:34N 40°45' W 073°58'6 2.9
2016-Jul-23 12:33N 40°40' W 074°02'5 5.2
2016-Jul-23 11:34N 40°44' W 073°58'10 0.8
2016-Jul-22 23:03N 40°35' W 074°02'1019.9
2016-Jul-22 22:34N 40°44' W 073°58'12 8.1
2016-Jul-22 21:04N 40°32' W 074°02'1020.3
2016-Jul-22 20:33N 40°42' W 073°60'5 0.7
2016-Jul-22 13:14N 40°47' W 073°56'711.0
2016-Jul-22 12:33N 40°40' W 074°02'8 7.4
2016-Jul-22 11:29N 40°32' W 074°02'8 8.7
2016-Jul-22 10:34N 40°40' W 074°01'2 0.2
2016-Jul-21 23:34N 40°42' W 074°02'1 0.3
2016-Jul-21 21:33N 40°43' W 074°02'0 0.0
2016-Jul-21 19:33N 40°43' W 074°02'3 3.3
2016-Jul-21 18:33N 40°45' W 073°58'0 0.0
2016-Jul-21 17:33N 40°45' W 073°58'0 0.0
2016-Jul-21 16:33N 40°45' W 073°58'0 0.0
2016-Jul-21 15:33N 40°45' W 073°58'0 0.0
2016-Jul-21 14:33N 40°45' W 073°58'0 0.0
2016-Jul-21 13:33N 40°45' W 073°58'3 3.3
2016-Jul-21 12:33N 40°43' W 074°02'1717.1
2016-Jul-21 11:33N 40°26' W 074°02'1717.5
2016-Jul-21 10:33N 40°43' W 074°02'1 0.1
2016-Jul-20 23:34N 40°42' W 074°02'1 0.3
2016-Jul-20 21:33N 40°43' W 074°02'0 0.0
2016-Jul-20 19:33N 40°43' W 074°02'5 0.7
2016-Jul-20 13:04N 40°46' W 073°57'5 9.5
2016-Jul-20 12:34N 40°43' W 074°02'11 9.2
2016-Jul-20 11:20N 40°32' W 074°02'1114.4
2016-Jul-20 10:34N 40°43' W 074°02'0 0.0
2016-Jul-19 23:33N 40°43' W 074°02'0 0.0
2016-Jul-19 21:33N 40°43' W 074°02'0 0.0
2016-Jul-19 19:33N 40°43' W 074°02'5 0.7
2016-Jul-19 13:04N 40°46' W 073°57'5 9.1
2016-Jul-19 12:33N 40°43' W 074°02'1515.3
2016-Jul-19 11:33N 40°27' W 074°02'1515.7
2016-Jul-19 10:33N 40°43' W 074°02'1 0.1
2016-Jul-18 23:34N 40°42' W 074°02'1 0.3
2016-Jul-18 21:33N 40°43' W 074°02'0 0.1
2016-Jul-18 19:34N 40°43' W 074°02'  
Track history (hours):
 
Tides and Currents Weather Stations Pressure Air Temp Water Temp Dewpoint Dewpoint Depression Visibility Wind Speed Wind Dir Waves Ship Positions

Seastreak Highlands

Owner: Seastreak llc, atlantic highlands, NJ. More information available from US FCC via Universal Licensing System and Coast Guard Vessel Documentation Center.

Last reported at 2016-Jul-28 17:14 UTC. Time now 2016-Jul-28 18:23 UTC.
Position N 40°45' W 073°58'.

Length 44 m.

Type: High speed craft. MMSI: 367347670.

Date/timePositionNaut miles runAvg speedWind from/ knotsBaromVisibWave heightAir tempDewpointWater temp
2016-Jul-28 17:14N 40°45' W 073°58'0 0.0
2016-Jul-28 16:28N 40°45' W 073°58'0 0.0
2016-Jul-28 15:33N 40°45' W 073°58'0 0.0
2016-Jul-28 13:30N 40°45' W 073°58'3 3.5
2016-Jul-28 12:33N 40°43' W 074°02'1311.7
2016-Jul-28 11:26N 40°30' W 074°02'1314.9
2016-Jul-28 10:33N 40°43' W 074°02'0 0.0
2016-Jul-27 23:33N 40°43' W 074°02'0 0.0
2016-Jul-27 21:33N 40°43' W 074°02'0 0.0
2016-Jul-27 19:33N 40°43' W 074°02'3 3.3
2016-Jul-27 18:33N 40°45' W 073°58'0 0.0
2016-Jul-27 17:33N 40°45' W 073°58'0 0.0
2016-Jul-27 16:34N 40°45' W 073°58'0 0.0
2016-Jul-27 15:33N 40°45' W 073°58'0 0.0
2016-Jul-27 14:33N 40°45' W 073°58'0 0.0
2016-Jul-27 13:33N 40°45' W 073°58'3 3.3
2016-Jul-27 12:33N 40°43' W 074°02'10 7.7
2016-Jul-27 11:17N 40°33' W 074°02'1013.7
2016-Jul-27 10:34N 40°43' W 074°02'0 0.0
2016-Jul-26 23:33N 40°43' W 074°02'0 0.1
2016-Jul-26 21:34N 40°43' W 074°02'0 0.0
2016-Jul-26 19:33N 40°43' W 074°02'3 0.8
2016-Jul-26 15:34N 40°40' W 074°03'6 6.1
2016-Jul-26 14:33N 40°45' W 073°58'0 0.0
2016-Jul-26 13:34N 40°45' W 073°58'3 3.3
2016-Jul-26 12:33N 40°43' W 074°02'1716.0
2016-Jul-26 11:31N 40°26' W 074°02'1717.5
2016-Jul-26 10:33N 40°43' W 074°02'0 0.0
2016-Jul-25 23:34N 40°43' W 074°02'0 0.1
2016-Jul-25 21:33N 40°43' W 074°02'0 0.0
2016-Jul-25 19:33N 40°43' W 074°02'5 0.7
2016-Jul-25 13:08N 40°46' W 073°57'5 8.1
2016-Jul-25 12:33N 40°43' W 074°02'10 8.0
2016-Jul-25 11:16N 40°33' W 074°02'1014.4
2016-Jul-25 10:33N 40°43' W 074°02'9 0.8
2016-Jul-24 23:34N 40°34' W 074°03'4 3.5
2016-Jul-24 22:34N 40°38' W 074°03'2 1.5
2016-Jul-24 21:26N 40°36' W 074°03'7 7.9
2016-Jul-24 20:33N 40°42' W 073°59'7 1.3
2016-Jul-24 15:05N 40°36' W 074°03'915.4
2016-Jul-24 14:29N 40°45' W 073°58'8 4.2
2016-Jul-24 12:33N 40°37' W 074°03'6 6.0
2016-Jul-24 11:33N 40°42' W 073°59'9 0.7
2016-Jul-23 23:19N 40°34' W 074°03'911.5
2016-Jul-23 22:34N 40°42' W 073°60'9 8.9
2016-Jul-23 21:30N 40°33' W 074°02'9 9.8
2016-Jul-23 20:34N 40°42' W 073°60'7 1.2
2016-Jul-23 15:04N 40°36' W 074°03'918.7
2016-Jul-23 14:34N 40°45' W 073°58'6 2.9
2016-Jul-23 12:33N 40°40' W 074°02'5 5.2
2016-Jul-23 11:34N 40°44' W 073°58'10 0.8
2016-Jul-22 23:03N 40°35' W 074°02'1019.9
2016-Jul-22 22:34N 40°44' W 073°58'12 8.1
2016-Jul-22 21:04N 40°32' W 074°02'1020.3
2016-Jul-22 20:33N 40°42' W 073°60'5 0.7
2016-Jul-22 13:14N 40°47' W 073°56'711.0
2016-Jul-22 12:33N 40°40' W 074°02'8 7.4
2016-Jul-22 11:29N 40°32' W 074°02'8 8.7
2016-Jul-22 10:34N 40°40' W 074°01'2 0.2
2016-Jul-21 23:34N 40°42' W 074°02'1 0.3
2016-Jul-21 21:33N 40°43' W 074°02'0 0.0
2016-Jul-21 19:33N 40°43' W 074°02'3 3.3
2016-Jul-21 18:33N 40°45' W 073°58'0 0.0
2016-Jul-21 17:33N 40°45' W 073°58'0 0.0
2016-Jul-21 16:33N 40°45' W 073°58'0 0.0
2016-Jul-21 15:33N 40°45' W 073°58'0 0.0
2016-Jul-21 14:33N 40°45' W 073°58'0 0.0
2016-Jul-21 13:33N 40°45' W 073°58'3 3.3
2016-Jul-21 12:33N 40°43' W 074°02'1717.1
2016-Jul-21 11:33N 40°26' W 074°02'1717.5
2016-Jul-21 10:33N 40°43' W 074°02'1 0.1
2016-Jul-20 23:34N 40°42' W 074°02'1 0.3
2016-Jul-20 21:33N 40°43' W 074°02'0 0.0
2016-Jul-20 19:33N 40°43' W 074°02'5 0.7
2016-Jul-20 13:04N 40°46' W 073°57'5 9.5
2016-Jul-20 12:34N 40°43' W 074°02'11 9.2
2016-Jul-20 11:20N 40°32' W 074°02'1114.4
2016-Jul-20 10:34N 40°43' W 074°02'0 0.0
2016-Jul-19 23:33N 40°43' W 074°02'0 0.0
2016-Jul-19 21:33N 40°43' W 074°02'0 0.0
2016-Jul-19 19:33N 40°43' W 074°02'5 0.7
2016-Jul-19 13:04N 40°46' W 073°57'5 9.1
2016-Jul-19 12:33N 40°43' W 074°02'1515.3
2016-Jul-19 11:33N 40°27' W 074°02'1515.7
2016-Jul-19 10:33N 40°43' W 074°02'1 0.1
2016-Jul-18 23:34N 40°42' W 074°02'1 0.3
2016-Jul-18 21:33N 40°43' W 074°02'0 0.1
2016-Jul-18 19:34N 40°43' W 074°02'  

Dump ship's entire track history